Time;durP1;ratioP1;P1;durP2;ratioP2;P2;SDS_P1;SDS_P2;PMS_P1;PMS_P2;Temp;Humidity;BMP_temperature;BMP_pressure;BME280_temperature;BME280_humidity;BME280_pressure;Samples;Min_cycle;Max_cycle;Signal;HPM_P1;HPM_P2
2022/12/14 00:02:05;;;;;;;10.13;4.43;;;;;;;-0.35;65.51;99317.00;10341913;28;20116;-68
2022/12/14 00:07:06;;;;;;;12.93;5.00;;;;;;;-0.33;65.39;99316.88;10346833;28;20555;-68
2022/12/14 00:12:08;;;;;;;12.25;4.65;;;;;;;-0.35;64.80;99319.63;10343094;28;20041;-68
2022/12/14 00:17:09;;;;;;;9.80;4.38;;;;;;;-0.34;65.17;99312.53;10339530;28;20149;-69
2022/12/14 00:22:11;;;;;;;10.35;4.45;;;;;;;-0.31;65.52;99309.66;10341320;28;20631;-68
2022/12/14 00:27:12;;;;;;;12.73;4.43;;;;;;;-0.22;64.50;99290.34;10346479;28;20549;-68
2022/12/14 00:32:14;;;;;;;8.85;4.38;;;;;;;-0.27;65.23;99297.84;10349883;28;21085;-67
2022/12/14 00:37:15;;;;;;;10.90;4.13;;;;;;;-0.28;64.86;99302.28;10345519;28;20148;-68
2022/12/14 00:42:16;;;;;;;8.55;4.28;;;;;;;-0.31;64.49;99289.34;10347964;28;20066;-68
2022/12/14 00:47:18;;;;;;;10.32;4.82;;;;;;;-0.26;65.12;99278.38;10347846;28;20142;-69
2022/12/14 00:52:20;;;;;;;11.73;4.13;;;;;;;-0.28;64.71;99275.88;10348400;28;20038;-67
2022/12/14 00:57:21;;;;;;;13.27;4.85;;;;;;;-0.25;64.15;99277.44;10350562;28;20128;-66
2022/12/14 01:02:23;;;;;;;12.32;4.20;;;;;;;-0.32;64.65;99281.56;10341052;28;20044;-68
2022/12/14 01:07:24;;;;;;;14.60;4.88;;;;;;;-0.23;63.97;99280.78;10345179;28;20042;-67
2022/12/14 01:12:26;;;;;;;9.77;4.00;;;;;;;-0.23;64.05;99273.66;10342581;28;20433;-68
2022/12/14 01:17:27;;;;;;;12.80;4.78;;;;;;;-0.22;64.79;99274.50;10348999;28;20165;-68
2022/12/14 01:22:29;;;;;;;9.20;3.78;;;;;;;-0.17;64.88;99272.31;10343884;28;20148;-68
2022/12/14 01:27:30;;;;;;;8.85;4.30;;;;;;;-0.17;64.49;99258.28;10342597;28;20044;-68
2022/12/14 01:32:33;;;;;;;9.70;4.00;;;;;;;-0.15;64.39;99261.63;10343710;28;20042;-68
2022/12/14 01:37:34;;;;;;;8.18;4.05;;;;;;;-0.19;64.34;99252.28;10348207;28;20069;-67
2022/12/14 01:42:36;;;;;;;13.68;4.60;;;;;;;-0.17;64.68;99242.44;10342961;28;20128;-68
2022/12/14 01:47:47;;;;;;;10.00;5.15;;;;;;;-0.11;64.19;99231.31;10347348;28;20056;-68
2022/12/14 01:52:53;;;;;;;9.43;3.97;;;;;;;-0.10;63.93;99225.91;10342145;28;20129;-67
2022/12/14 01:58:13;;;;;;;9.13;4.38;;;;;;;-0.15;64.74;99200.88;10343350;28;20125;-67
2022/12/14 02:03:20;;;;;;;9.40;4.30;;;;;;;-0.14;64.24;99200.72;10341054;28;20152;-68
2022/12/14 02:08:23;;;;;;;7.35;3.72;;;;;;;-0.15;63.98;99199.06;10338882;28;20050;-67
2022/12/14 02:13:34;;;;;;;8.55;3.80;;;;;;;-0.21;64.74;99197.78;10340111;28;20050;-68
2022/12/14 02:18:35;;;;;;;9.18;3.78;;;;;;;-0.28;64.47;99185.25;10345858;28;20045;-69
2022/12/14 02:23:56;;;;;;;13.35;4.55;;;;;;;-0.30;64.15;99174.84;10338203;28;20126;-69
2022/12/14 02:29:25;;;;;;;8.05;4.13;;;;;;;-0.29;64.52;99154.56;10343200;28;20061;-69
2022/12/14 02:34:51;;;;;;;9.52;4.03;;;;;;;-0.27;63.93;99142.06;10343003;28;20518;-68
2022/12/14 02:40:04;;;;;;;9.05;3.65;;;;;;;-0.32;63.81;99139.81;10329397;28;20464;-68
2022/12/14 02:45:16;;;;;;;7.72;4.05;;;;;;;-0.29;64.47;99131.63;10339995;28;20206;-68
2022/12/14 02:50:53;;;;;;;9.80;3.70;;;;;;;-0.30;63.99;99137.88;10341393;28;20136;-68
2022/12/14 02:56:00;;;;;;;11.00;4.05;;;;;;;-0.37;63.72;99142.03;10332593;28;20052;-68
2022/12/14 03:01:03;;;;;;;8.13;4.20;;;;;;;-0.27;63.83;99128.88;10341803;28;20136;-68
2022/12/14 03:06:13;;;;;;;11.75;4.32;;;;;;;-0.21;63.36;99120.38;10342855;28;20493;-66
2022/12/14 03:11:23;;;;;;;10.27;4.05;;;;;;;-0.12;63.23;99116.06;10336120;28;20057;-67
2022/12/14 03:16:41;;;;;;;9.88;4.13;;;;;;;-0.15;63.33;99103.16;10343080;28;20140;-67
2022/12/14 03:21:49;;;;;;;7.07;3.05;;;;;;;-0.11;63.77;99099.28;10340524;28;20049;-69
2022/12/14 03:27:04;;;;;;;10.73;4.45;;;;;;;-0.01;63.09;99094.81;10343423;28;20072;-68
2022/12/14 03:32:10;;;;;;;11.25;3.33;;;;;;;0.02;63.59;99083.97;10344580;28;20046;-67
2022/12/14 03:37:23;;;;;;;10.05;4.13;;;;;;;0.03;63.21;99075.06;10335843;28;20043;-69
2022/12/14 03:42:29;;;;;;;7.03;3.38;;;;;;;0.06;63.33;99069.53;10338625;28;20141;-67
2022/12/14 03:47:52;;;;;;;9.43;3.88;;;;;;;0.11;63.10;99061.16;10341902;28;20042;-67
2022/12/14 03:53:33;;;;;;;6.43;2.97;;;;;;;0.08;63.36;99064.94;10339924;28;20168;-69
2022/12/14 03:59:09;;;;;;;8.48;4.30;;;;;;;0.16;63.43;99064.22;10336206;28;20045;-69
2022/12/14 04:04:26;;;;;;;8.10;3.33;;;;;;;0.22;63.19;99058.38;10335511;28;20052;-69
2022/12/14 04:09:38;;;;;;;9.43;4.30;;;;;;;0.30;63.30;99055.03;10300204;28;20417;-67
2022/12/14 04:20:18;;;;;;;7.20;3.85;;;;;;;0.45;62.58;99050.94;10316532;28;20496;-67
2022/12/14 04:30:45;;;;;;;8.35;3.65;;;;;;;0.45;63.15;99042.16;10341445;28;20080;-68
2022/12/14 04:35:49;;;;;;;10.02;4.40;;;;;;;0.47;62.63;99046.31;10340822;28;20073;-69
2022/12/14 04:40:54;;;;;;;9.95;4.05;;;;;;;0.43;62.83;99042.31;10341575;28;20485;-68
2022/12/14 04:46:05;;;;;;;6.88;3.20;;;;;;;0.52;62.98;99045.91;10340016;28;20070;-69
2022/12/14 04:51:26;;;;;;;8.65;3.40;;;;;;;0.55;62.46;99049.09;10344949;28;20046;-68
2022/12/14 04:56:39;;;;;;;7.68;3.53;;;;;;;0.56;62.58;99055.22;10340577;28;20244;-68
2022/12/14 05:01:58;;;;;;;11.55;3.65;;;;;;;0.58;63.17;99040.03;10337986;28;20038;-70
2022/12/14 05:07:05;;;;;;;10.38;3.78;;;;;;;0.64;62.26;99041.28;10346838;28;20129;-69
2022/12/14 05:12:18;;;;;;;10.32;3.75;;;;;;;0.65;63.06;99049.03;10356939;28;20141;-69
2022/12/14 05:17:20;;;;;;;8.93;3.42;;;;;;;0.67;63.03;99041.84;10331509;28;20590;-69
2022/12/14 05:22:21;;;;;;;7.60;3.88;;;;;;;0.67;63.03;99035.69;10350691;28;20121;-67
2022/12/14 05:27:23;;;;;;;9.27;3.38;;;;;;;0.71;62.88;99034.41;10354785;28;20046;-69
2022/12/14 05:32:27;;;;;;;10.07;3.50;;;;;;;0.83;62.78;99029.78;10345555;28;20172;-69
2022/12/14 05:37:28;;;;;;;7.70;3.22;;;;;;;0.84;62.36;99027.00;10357158;28;20497;-68
2022/12/14 05:42:30;;;;;;;5.97;3.15;;;;;;;0.90;61.99;99017.63;10353964;28;20144;-69
2022/12/14 05:47:31;;;;;;;7.43;2.97;;;;;;;0.97;62.81;99005.50;10347825;28;20054;-68
2022/12/14 05:52:33;;;;;;;10.13;4.35;;;;;;;0.96;62.50;99003.81;10345639;28;20128;-68
2022/12/14 05:57:34;;;;;;;9.00;3.95;;;;;;;0.98;62.19;98988.63;10345899;28;20464;-69
2022/12/14 06:02:36;;;;;;;8.30;4.07;;;;;;;1.09;61.77;98984.97;10346206;28;20124;-68
2022/12/14 06:07:38;;;;;;;8.45;3.92;;;;;;;1.12;62.47;98971.41;10346476;28;20089;-67
2022/12/14 06:12:39;;;;;;;12.27;4.40;;;;;;;1.14;62.45;98969.44;10339159;28;20061;-68
2022/12/14 06:17:45;;;;;;;8.90;4.07;;;;;;;1.12;62.58;98956.34;10343890;28;20160;-68
2022/12/14 06:22:47;;;;;;;11.20;5.18;;;;;;;1.18;62.55;98949.63;10343309;28;20113;-68
2022/12/14 06:27:53;;;;;;;9.80;4.13;;;;;;;1.16;62.16;98939.19;10340954;28;20129;-66
2022/12/14 06:32:54;;;;;;;8.93;3.60;;;;;;;1.21;62.29;98937.94;10343713;28;20062;-67
2022/12/14 06:37:55;;;;;;;8.77;4.13;;;;;;;1.17;62.98;98929.47;10340918;28;20500;-67
2022/12/14 06:42:57;;;;;;;8.25;3.78;;;;;;;1.12;63.21;98919.31;10309989;28;20129;-68
2022/12/14 06:47:58;;;;;;;8.82;4.32;;;;;;;1.16;62.80;98912.72;10324990;28;20128;-63
2022/12/14 06:53:00;;;;;;;12.68;4.50;;;;;;;1.23;62.05;98899.75;10295073;28;20498;-65
2022/12/14 06:58:01;;;;;;;10.15;3.97;;;;;;;1.22;63.00;98908.66;10298840;28;20561;-64
2022/12/14 07:03:03;;;;;;;9.68;4.53;;;;;;;1.21;62.62;98912.28;10299899;28;20114;-65
2022/12/14 07:08:04;;;;;;;10.02;4.05;;;;;;;1.23;62.33;98902.38;10301460;28;20058;-65
2022/12/14 07:13:06;;;;;;;8.43;4.20;;;;;;;1.29;62.65;98888.53;10295121;28;20090;-65
2022/12/14 07:18:07;;;;;;;9.95;4.65;;;;;;;1.38;62.54;98885.00;10295205;28;20057;-65
2022/12/14 07:23:09;;;;;;;8.30;4.28;;;;;;;1.35;62.78;98882.63;10298068;28;20109;-65
2022/12/14 07:28:10;;;;;;;12.85;5.72;;;;;;;1.35;62.42;98864.09;10301618;28;20060;-66
2022/12/14 07:33:12;;;;;;;16.58;6.32;;;;;;;1.26;62.84;98869.47;10303901;28;20108;-65
2022/12/14 07:38:13;;;;;;;13.05;5.35;;;;;;;1.29;62.57;98859.44;10300883;28;20063;-65
2022/12/14 07:43:14;;;;;;;11.80;4.90;;;;;;;1.29;62.23;98856.78;10307123;28;20066;-65
2022/12/14 07:48:16;;;;;;;12.15;5.85;;;;;;;1.32;63.20;98872.38;10295202;28;20061;-65
2022/12/14 07:53:17;;;;;;;15.77;6.03;;;;;;;1.26;63.15;98880.06;10298919;28;20608;-65
2022/12/14 07:58:19;;;;;;;14.93;6.50;;;;;;;1.27;63.05;98884.41;10299573;28;20078;-66
2022/12/14 08:03:20;;;;;;;10.65;5.43;;;;;;;1.29;62.48;98885.06;10301366;28;20122;-63
2022/12/14 08:08:22;;;;;;;13.30;5.13;;;;;;;1.32;62.04;98892.69;10304757;28;20150;-64
2022/12/14 08:13:23;;;;;;;14.63;4.63;;;;;;;1.34;63.08;98896.00;10298541;28;20675;-64
2022/12/14 08:18:24;;;;;;;10.50;4.90;;;;;;;1.33;62.23;98905.78;10297685;28;20146;-64
2022/12/14 08:23:26;;;;;;;11.07;5.10;;;;;;;1.37;62.88;98908.97;10290625;28;20067;-64
2022/12/14 08:28:30;;;;;;;10.48;5.55;;;;;;;1.46;63.01;98904.53;10296576;28;20043;-65
2022/12/14 08:33:33;;;;;;;10.73;5.60;;;;;;;1.46;63.28;98907.19;10294548;28;20133;-64
2022/12/14 08:38:35;;;;;;;11.55;5.15;;;;;;;1.46;62.85;98915.13;10294607;28;20137;-64
2022/12/14 08:43:37;;;;;;;11.13;5.28;;;;;;;1.35;63.58;98924.97;10303701;28;20074;-65
2022/12/14 08:48:38;;;;;;;12.38;5.28;;;;;;;1.39;63.58;98928.16;10306104;28;20078;-65
2022/12/14 08:53:40;;;;;;;10.65;4.57;;;;;;;1.48;63.28;98924.63;10313699;28;20181;-63
2022/12/14 08:58:41;;;;;;;13.73;5.88;;;;;;;1.51;62.75;98916.34;10306266;28;20078;-62
2022/12/14 09:03:44;;;;;;;10.68;5.32;;;;;;;1.53;63.40;98909.06;10301333;28;20066;-61
2022/12/14 09:08:46;;;;;;;13.50;5.95;;;;;;;1.56;63.33;98906.13;10302908;28;20073;-62
2022/12/14 09:13:54;;;;;;;9.05;4.60;;;;;;;1.44;64.48;98910.00;10301394;28;20069;-62
2022/12/14 09:18:55;;;;;;;9.65;5.18;;;;;;;1.51;63.55;98910.22;10301802;28;20134;-63
2022/12/14 09:23:57;;;;;;;12.80;6.20;;;;;;;1.55;64.17;98909.75;10304637;28;20129;-62
2022/12/14 09:29:00;;;;;;;12.57;5.65;;;;;;;1.56;64.28;98915.88;10303148;28;20050;-62
2022/12/14 09:34:02;;;;;;;11.60;5.05;;;;;;;1.44;64.25;98923.22;10304404;28;20086;-63
2022/12/14 09:39:04;;;;;;;12.90;5.22;;;;;;;1.47;64.45;98922.94;10303531;28;20077;-63
2022/12/14 09:44:34;;;;;;;10.73;4.82;;;;;;;1.42;64.86;98919.91;10298538;28;20447;-62
2022/12/14 09:49:50;;;;;;;10.07;4.50;;;;;;;1.32;64.49;98900.63;10306079;28;20093;-61
2022/12/14 09:54:53;;;;;;;11.60;4.88;;;;;;;1.30;64.71;98906.06;10305509;28;20661;-62
2022/12/14 09:59:55;;;;;;;14.45;5.13;;;;;;;1.33;65.43;98903.13;10303438;28;20442;-62
2022/12/14 10:05:15;;;;;;;11.30;5.68;;;;;;;1.34;64.59;98896.88;10306662;28;20565;-62
2022/12/14 10:10:30;;;;;;;13.65;5.63;;;;;;;1.42;64.59;98901.38;10303204;28;20589;-63
2022/12/14 10:15:58;;;;;;;14.15;5.88;;;;;;;1.34;65.04;98890.72;10307410;28;20493;-62
2022/12/14 10:21:14;;;;;;;10.75;5.60;;;;;;;1.43;65.30;98886.34;10306427;28;20042;-62
2022/12/14 10:26:19;;;;;;;10.48;5.43;;;;;;;1.44;65.45;98874.75;10345565;28;20137;-61
2022/12/14 10:31:32;;;;;;;16.38;5.40;;;;;;;1.39;65.20;98872.56;10336102;28;20134;-61
2022/12/14 10:36:43;;;;;;;14.20;5.22;;;;;;;1.28;65.66;98867.50;10302738;28;20048;-62
2022/12/14 10:41:56;;;;;;;12.23;6.43;;;;;;;1.32;65.96;98871.50;10303286;28;20050;-62
2022/12/14 10:47:36;;;;;;;13.55;6.90;;;;;;;1.33;64.97;98876.66;10300284;28;20046;-63
2022/12/14 10:52:41;;;;;;;16.95;7.10;;;;;;;1.30;65.71;98855.78;10294720;28;20457;-62
2022/12/14 10:57:42;;;;;;;13.88;6.13;;;;;;;1.34;65.72;98853.66;10304476;28;20133;-63
2022/12/14 11:02:47;;;;;;;12.63;5.97;;;;;;;1.31;65.34;98852.16;10296531;28;20039;-63
2022/12/14 11:07:51;;;;;;;14.87;7.23;;;;;;;1.40;65.94;98853.03;10300906;28;20049;-63
2022/12/14 11:13:14;;;;;;;11.82;5.82;;;;;;;1.47;65.22;98842.69;10300643;28;21453;-63
2022/12/14 11:18:15;;;;;;;14.93;6.50;;;;;;;1.53;65.51;98844.69;10299864;28;20485;-61
2022/12/14 11:23:52;;;;;;;17.20;6.53;;;;;;;1.53;65.12;98839.41;10304577;28;20049;-62
2022/12/14 11:28:59;;;;;;;17.00;5.70;;;;;;;1.56;65.04;98844.38;10260714;28;20149;-62
2022/12/14 11:34:03;;;;;;;11.77;6.38;;;;;;;1.62;64.74;98834.97;10297633;28;20120;-62
2022/12/14 11:39:08;;;;;;;11.05;5.60;;;;;;;1.64;64.73;98831.22;10302754;28;20683;-61
2022/12/14 11:44:12;;;;;;;12.23;6.05;;;;;;;1.59;65.21;98825.53;10298663;28;20126;-61
2022/12/14 11:49:32;;;;;;;16.42;7.30;;;;;;;1.66;65.63;98826.59;10300497;28;20129;-61
2022/12/14 11:54:37;;;;;;;15.27;5.85;;;;;;;1.76;65.04;98822.00;10297401;28;20073;-62
2022/12/14 11:59:44;;;;;;;12.88;5.60;;;;;;;1.86;65.65;98826.38;10303179;28;20081;-61
2022/12/14 12:04:52;;;;;;;13.13;6.38;;;;;;;1.89;65.23;98818.09;10302826;28;20230;-62
2022/12/14 12:09:54;;;;;;;;;;;;;;;2.10;65.42;98818.50;10294544;28;20125;-62
2022/12/14 12:14:57;;;;;;;11.55;6.28;;;;;;;2.13;66.19;98812.91;10298385;28;20044;-62
2022/12/14 12:19:59;;;;;;;13.63;6.00;;;;;;;2.11;65.71;98819.34;10306379;28;20038;-61
2022/12/14 12:25:04;;;;;;;13.07;6.07;;;;;;;2.12;66.35;98821.00;10304184;28;20179;-63
2022/12/14 12:30:28;;;;;;;13.43;5.30;;;;;;;2.21;65.67;98819.22;10306347;28;20061;-63
2022/12/14 12:35:48;;;;;;;14.35;6.55;;;;;;;2.18;65.58;98826.50;10302156;28;20153;-63
2022/12/14 12:41:05;;;;;;;13.15;5.95;;;;;;;2.09;65.68;98829.25;10308087;28;20567;-62
2022/12/14 12:46:30;;;;;;;12.15;6.18;;;;;;;2.05;66.20;98827.94;10305549;28;20034;-63
2022/12/14 12:51:41;;;;;;;11.25;5.45;;;;;;;2.21;65.80;98829.81;10308007;28;20042;-62
2022/12/14 12:56:47;;;;;;;10.27;6.00;;;;;;;2.32;65.43;98824.22;10310468;28;20070;-64
2022/12/14 13:01:53;;;;;;;14.35;5.85;;;;;;;2.47;65.21;98833.22;10305947;28;20047;-64
2022/12/14 13:07:14;;;;;;;12.80;5.97;;;;;;;2.46;65.20;98833.38;10304397;28;20598;-62
2022/12/14 13:12:27;;;;;;;14.23;5.70;;;;;;;2.60;64.84;98830.09;10306896;28;20057;-62
2022/12/14 13:17:31;;;;;;;12.20;5.65;;;;;;;2.60;65.36;98829.28;10304846;28;20090;-63
2022/12/14 13:22:35;;;;;;;10.40;5.53;;;;;;;2.61;65.10;98826.47;10306363;28;20042;-63
2022/12/14 13:27:54;;;;;;;13.45;6.18;;;;;;;2.66;64.71;98839.22;10306487;28;20451;-63
2022/12/14 13:33:06;;;;;;;12.85;5.95;;;;;;;2.58;64.81;98848.81;10306045;28;20132;-64
2022/12/14 13:38:28;;;;;;;10.75;5.53;;;;;;;2.58;64.61;98842.69;10307425;28;20062;-64
2022/12/14 13:44:03;;;;;;;10.63;6.28;;;;;;;2.63;64.44;98839.56;10302090;28;20070;-62
2022/12/14 13:49:16;;;;;;;10.95;5.20;;;;;;;2.64;64.18;98851.81;10309285;28;20138;-64
2022/12/14 13:54:27;;;;;;;10.82;5.72;;;;;;;2.63;64.81;98869.56;10306203;28;20126;-63
2022/12/14 13:59:35;;;;;;;13.85;6.32;;;;;;;2.46;65.15;98866.03;10305025;28;20070;-62
2022/12/14 14:04:37;;;;;;;9.35;5.40;;;;;;;2.67;64.43;98857.63;10302537;28;20554;-63
2022/12/14 14:10:03;;;;;;;15.50;6.78;;;;;;;2.76;64.60;98861.13;10308318;28;20069;-63
2022/12/14 14:15:07;;;;;;;11.02;5.70;;;;;;;2.84;64.35;98853.19;10311572;28;20434;-63
2022/12/14 14:20:33;;;;;;;14.32;8.35;;;;;;;2.80;64.13;98854.50;10320867;28;20070;-63
2022/12/14 14:26:08;;;;;;;15.38;7.47;;;;;;;2.76;64.37;98856.69;10302668;28;20035;-62
2022/12/14 14:31:10;;;;;;;14.07;5.20;;;;;;;2.68;64.02;98867.25;10311606;28;20522;-62
2022/12/14 14:36:22;;;;;;;13.32;6.03;;;;;;;2.65;63.72;98880.84;10305498;28;20038;-63
2022/12/14 14:41:28;;;;;;;13.30;5.97;;;;;;;2.51;63.60;98877.00;10300143;28;20601;-62
2022/12/14 14:46:46;;;;;;;17.02;7.95;;;;;;;2.24;64.11;98871.91;10308508;28;20046;-63
2022/12/14 14:51:48;;;;;;;13.98;6.15;;;;;;;2.00;64.03;98881.41;10315066;28;20051;-64
2022/12/14 14:56:50;;;;;;;13.27;6.50;;;;;;;1.82;64.53;98883.28;10303572;28;20137;-63
2022/12/14 15:01:56;;;;;;;14.93;6.97;;;;;;;1.84;64.36;98886.59;10304886;28;20069;-62
2022/12/14 15:07:04;;;;;;;19.38;9.07;;;;;;;1.75;64.04;98889.19;10300028;28;20074;-63
2022/12/14 15:12:32;;;;;;;15.75;6.93;;;;;;;1.66;63.80;98908.69;10299771;28;21302;-63
2022/12/14 15:17:33;;;;;;;16.05;7.75;;;;;;;1.59;64.28;98915.56;10314891;28;20108;-64
2022/12/14 15:22:44;;;;;;;20.13;9.05;;;;;;;1.47;63.82;98938.00;10343496;28;20572;-62
2022/12/14 15:27:46;;;;;;;20.90;9.70;;;;;;;1.36;64.15;98952.28;10330157;28;20080;-61
2022/12/14 15:33:01;;;;;;;25.02;10.73;;;;;;;1.21;64.18;98964.41;10338089;28;20076;-61
2022/12/14 15:38:24;;;;;;;16.88;7.93;;;;;;;1.09;64.87;98969.09;10339951;28;20288;-62
2022/12/14 15:43:26;;;;;;;18.90;10.45;;;;;;;0.88;65.23;98974.63;10341699;28;20073;-62
2022/12/14 15:48:32;;;;;;;20.17;11.07;;;;;;;0.73;64.68;98967.19;10350475;28;20057;-63
2022/12/14 15:53:49;;;;;;;19.75;10.93;;;;;;;0.71;64.90;98976.25;10344517;28;20074;-64
2022/12/14 15:58:52;;;;;;;16.73;9.32;;;;;;;0.58;64.80;98985.34;10340377;28;20050;-64
2022/12/14 16:03:57;;;;;;;22.30;10.65;;;;;;;0.48;64.97;98989.84;10347157;28;20125;-62
2022/12/14 16:09:11;;;;;;;19.98;9.73;;;;;;;0.42;64.93;98994.91;10336846;28;20146;-63
2022/12/14 16:14:24;;;;;;;36.42;17.48;;;;;;;0.41;64.81;98999.31;10339434;28;20497;-65
2022/12/14 16:19:31;;;;;;;28.45;13.75;;;;;;;0.40;65.31;99008.25;10343324;28;20524;-66
2022/12/14 16:25:04;;;;;;;27.73;12.65;;;;;;;0.33;65.36;99002.69;10339574;28;20058;-68
2022/12/14 16:30:16;;;;;;;22.92;9.75;;;;;;;0.18;65.37;99015.53;10341362;28;20038;-67
2022/12/14 16:35:23;;;;;;;21.00;8.63;;;;;;;0.21;65.69;99013.59;10341412;28;20050;-67
2022/12/14 16:40:30;;;;;;;17.60;8.43;;;;;;;0.18;65.63;99018.19;10341420;28;20089;-67
2022/12/14 16:45:55;;;;;;;15.88;7.28;;;;;;;0.16;65.17;99021.94;10341332;28;20077;-66
2022/12/14 16:51:17;;;;;;;20.08;9.63;;;;;;;0.11;65.49;99022.34;10343898;28;20092;-67
2022/12/14 16:56:41;;;;;;;24.98;10.30;;;;;;;0.03;65.34;99024.06;10339210;28;20057;-67
2022/12/14 17:01:47;;;;;;;26.70;12.07;;;;;;;-0.10;64.93;99017.25;10338731;28;20085;-68
2022/12/14 17:06:54;;;;;;;27.38;11.05;;;;;;;-0.17;65.61;99036.44;10346619;28;20107;-67
2022/12/14 17:11:58;;;;;;;22.77;10.77;;;;;;;-0.27;65.42;99050.47;10349476;28;20073;-67
2022/12/14 17:17:00;;;;;;;25.95;12.23;;;;;;;-0.40;64.99;99047.28;10350217;28;20066;-67
2022/12/14 17:22:05;;;;;;;29.40;14.85;;;;;;;-0.51;65.71;99071.19;10345547;28;20046;-68
2022/12/14 17:27:06;;;;;;;25.65;11.90;;;;;;;-0.59;65.59;99077.13;10343414;28;20076;-67
2022/12/14 17:32:11;;;;;;;31.60;14.98;;;;;;;-0.65;65.29;99086.44;10338352;28;20466;-67
2022/12/14 17:37:19;;;;;;;32.88;15.15;;;;;;;-0.71;65.78;99094.88;10347970;28;20133;-67
2022/12/14 17:42:21;;;;;;;28.27;12.48;;;;;;;-0.75;65.34;99084.72;10350290;28;20038;-68
2022/12/14 17:47:23;;;;;;;28.17;12.57;;;;;;;-0.85;65.80;99105.78;10345971;28;20054;-67
2022/12/14 17:52:30;;;;;;;44.38;15.63;;;;;;;-0.91;65.73;99103.69;10351048;28;20120;-66
2022/12/14 17:57:32;;;;;;;71.03;27.10;;;;;;;-0.99;65.74;99109.63;10343004;28;20052;-67
2022/12/14 18:02:34;;;;;;;63.28;25.88;;;;;;;-1.07;66.16;99109.47;10346818;28;20108;-68
2022/12/14 18:07:36;;;;;;;68.65;26.55;;;;;;;-1.15;65.83;99118.03;10347296;28;20041;-68
2022/12/14 18:12:38;;;;;;;31.88;14.15;;;;;;;-1.23;65.43;99115.22;10346315;28;20074;-67
2022/12/14 18:17:39;;;;;;;24.38;10.90;;;;;;;-1.40;66.34;99119.31;10341609;28;20131;-69
2022/12/14 18:22:41;;;;;;;24.80;10.93;;;;;;;-1.41;65.77;99120.25;10342622;28;20069;-67
2022/12/14 18:27:50;;;;;;;20.52;9.40;;;;;;;-1.44;66.29;99113.47;10349397;28;20674;-66
2022/12/14 18:32:53;;;;;;;25.88;10.98;;;;;;;-1.46;66.09;99120.66;10324379;28;20129;-67
2022/12/14 18:37:55;;;;;;;21.85;10.75;;;;;;;-1.43;66.40;99124.81;10343395;28;20097;-67
2022/12/14 18:42:57;;;;;;;23.35;11.00;;;;;;;-1.49;65.99;99118.28;10328209;28;20073;-68
2022/12/14 18:48:00;;;;;;;32.42;16.33;;;;;;;-1.49;65.79;99123.53;10347246;28;20042;-68
2022/12/14 18:53:01;;;;;;;23.38;12.05;;;;;;;-1.55;66.31;99139.88;10345736;28;20105;-68
2022/12/14 18:58:03;;;;;;;25.65;10.65;;;;;;;-1.59;66.49;99138.47;10346831;28;20073;-65
2022/12/14 19:03:05;;;;;;;27.92;12.43;;;;;;;-1.66;66.36;99135.50;10351892;28;20069;-65
2022/12/14 19:08:09;;;;;;;30.52;13.10;;;;;;;-1.67;66.27;99138.28;10332864;28;20038;-67
2022/12/14 19:13:16;;;;;;;26.85;11.98;;;;;;;-1.67;66.22;99154.06;10345174;28;20081;-66
2022/12/14 19:18:25;;;;;;;30.85;14.43;;;;;;;-1.68;65.47;99155.03;10343476;28;20065;-66
2022/12/14 19:23:30;;;;;;;34.65;13.85;;;;;;;-1.70;66.00;99162.22;10343273;28;20147;-64
2022/12/14 19:28:32;;;;;;;27.75;12.50;;;;;;;-1.74;66.22;99166.06;10345194;28;20046;-67
2022/12/14 19:33:35;;;;;;;28.95;12.18;;;;;;;-1.77;66.15;99171.63;10332786;28;20045;-66
2022/12/14 19:38:37;;;;;;;33.45;14.65;;;;;;;-1.77;66.52;99171.63;10341135;28;20093;-67
2022/12/14 19:43:38;;;;;;;32.90;14.90;;;;;;;-1.82;66.18;99172.84;10344659;28;20121;-66
2022/12/14 19:48:41;;;;;;;32.90;14.45;;;;;;;-1.87;66.22;99180.25;10344176;28;20045;-67
2022/12/14 19:53:44;;;;;;;40.78;16.38;;;;;;;-1.89;66.20;99191.88;10340519;28;20046;-67
2022/12/14 19:58:46;;;;;;;43.95;19.35;;;;;;;-1.92;66.01;99187.69;10342401;28;20459;-67
2022/12/14 20:03:48;;;;;;;39.40;16.17;;;;;;;-1.96;66.40;99190.72;10342855;28;20073;-65
2022/12/14 20:08:50;;;;;;;38.50;15.35;;;;;;;-2.01;66.41;99191.09;10345853;28;20401;-67
2022/12/14 20:13:52;;;;;;;40.47;16.17;;;;;;;-2.03;66.29;99198.28;10346510;28;20156;-66
2022/12/14 20:19:01;;;;;;;50.42;23.02;;;;;;;-2.07;66.42;99204.75;10345022;28;20108;-65
2022/12/14 20:24:03;;;;;;;49.53;23.45;;;;;;;-2.16;66.74;99203.69;10342960;28;20129;-65
2022/12/14 20:29:05;;;;;;;47.08;20.30;;;;;;;-2.17;66.57;99212.56;10344434;28;20133;-66
2022/12/14 20:34:08;;;;;;;39.15;18.23;;;;;;;-2.23;66.40;99213.06;10342301;28;20153;-67
2022/12/14 20:39:10;;;;;;;31.70;16.02;;;;;;;-2.29;66.69;99218.78;10339698;28;20082;-67
2022/12/14 20:44:12;;;;;;;31.48;15.38;;;;;;;-2.37;66.87;99219.38;10349801;28;20120;-65
2022/12/14 20:49:17;;;;;;;38.47;15.82;;;;;;;-2.52;66.90;99234.59;10334443;28;20129;-64
2022/12/14 20:54:21;;;;;;;42.47;21.25;;;;;;;-2.57;67.06;99230.66;10335006;28;20119;-66
2022/12/14 20:59:22;;;;;;;28.40;11.90;;;;;;;-2.52;66.67;99231.97;10344183;28;20046;-67
2022/12/14 21:04:24;;;;;;;24.80;11.15;;;;;;;-2.55;66.65;99221.66;10347378;28;20093;-67
2022/12/14 21:09:25;;;;;;;22.17;9.98;;;;;;;-2.55;66.63;99218.22;10349251;28;23571;-69
2022/12/14 21:14:29;;;;;;;20.73;9.63;;;;;;;-2.57;66.62;99223.59;10335787;28;20041;-67
2022/12/14 21:19:32;;;;;;;34.53;16.75;;;;;;;-2.63;66.77;99224.94;10346632;28;20073;-67
2022/12/14 21:24:36;;;;;;;39.65;16.17;;;;;;;-2.63;66.82;99237.22;10344828;28;20078;-67
2022/12/14 21:30:02;;;;;;;31.95;15.82;;;;;;;-2.67;66.79;99227.91;10346590;28;20050;-65
2022/12/14 21:35:04;;;;;;;39.10;16.58;;;;;;;-2.69;66.58;99235.06;10349046;28;20374;-66
2022/12/14 21:40:07;;;;;;;25.50;11.43;;;;;;;-2.70;66.49;99241.31;10343583;28;20042;-66
2022/12/14 21:45:09;;;;;;;27.85;10.70;;;;;;;-2.72;66.46;99241.41;10345890;28;20497;-67
2022/12/14 21:50:11;;;;;;;20.90;11.15;;;;;;;-2.74;66.77;99253.03;10344330;28;20126;-66
2022/12/14 21:55:12;;;;;;;21.58;10.18;;;;;;;-2.76;66.54;99257.53;10346561;28;20069;-67
2022/12/14 22:00:14;;;;;;;29.85;12.23;;;;;;;-2.76;67.04;99258.38;10346219;28;20132;-67
2022/12/14 22:05:15;;;;;;;27.58;11.75;;;;;;;-2.79;66.61;99258.59;10348614;28;20451;-67
2022/12/14 22:10:17;;;;;;;36.35;16.80;;;;;;;-2.77;66.55;99271.66;10345514;28;20133;-65
2022/12/14 22:15:25;;;;;;;29.63;14.15;;;;;;;-2.77;66.31;99277.75;10344362;28;20097;-66
2022/12/14 22:20:26;;;;;;;35.50;13.52;;;;;;;-2.76;66.80;99273.31;10348783;28;20037;-66
2022/12/14 22:25:28;;;;;;;25.55;11.70;;;;;;;-2.67;66.47;99262.09;10341975;28;20116;-65
2022/12/14 22:30:29;;;;;;;24.25;11.30;;;;;;;-2.62;66.79;99275.72;10333860;28;20080;-67
2022/12/14 22:35:32;;;;;;;28.10;12.55;;;;;;;-2.71;66.66;99271.16;10346594;28;20046;-66
2022/12/14 22:40:34;;;;;;;28.02;10.23;;;;;;;-3.02;67.14;99277.00;10342936;28;20066;-66
2022/12/14 22:45:35;;;;;;;26.92;10.40;;;;;;;-3.07;67.30;99275.66;10340343;28;20121;-67
2022/12/14 22:50:37;;;;;;;29.50;11.63;;;;;;;-2.97;67.33;99276.63;10343370;28;20038;-67
2022/12/14 22:55:38;;;;;;;20.67;10.05;;;;;;;-2.92;67.12;99278.91;10345648;28;20179;-66
2022/12/14 23:00:40;;;;;;;24.05;10.55;;;;;;;-2.91;66.94;99302.44;10341535;28;20129;-66
2022/12/14 23:05:41;;;;;;;24.95;11.45;;;;;;;-2.89;66.93;99291.81;10343242;28;20034;-68
